sensor_id;sensor_type;location;lat;lon;timestamp;P1;durP1;ratioP1;P2;durP2;ratioP2
35225;SDS011;21813;49.686;21.766;2023-04-25T00:00:23;11.77;;;10.15;;
35225;SDS011;21813;49.686;21.766;2023-04-25T00:03:08;13.77;;;10.18;;
35225;SDS011;21813;49.686;21.766;2023-04-25T00:05:35;12.35;;;10.85;;
35225;SDS011;21813;49.686;21.766;2023-04-25T00:08:02;13.07;;;10.98;;
35225;SDS011;21813;49.686;21.766;2023-04-25T00:10:29;11.43;;;10.23;;
35225;SDS011;21813;49.686;21.766;2023-04-25T00:12:55;12.25;;;10.23;;
35225;SDS011;21813;49.686;21.766;2023-04-25T00:15:22;11.77;;;10.57;;
35225;SDS011;21813;49.686;21.766;2023-04-25T00:17:49;12.63;;;10.68;;
35225;SDS011;21813;49.686;21.766;2023-04-25T00:20:16;12.65;;;10.90;;
35225;SDS011;21813;49.686;21.766;2023-04-25T00:22:42;11.23;;;10.10;;
35225;SDS011;21813;49.686;21.766;2023-04-25T00:25:10;12.95;;;10.70;;
35225;SDS011;21813;49.686;21.766;2023-04-25T00:27:35;11.60;;;10.40;;
35225;SDS011;21813;49.686;21.766;2023-04-25T00:30:02;12.30;;;10.48;;
35225;SDS011;21813;49.686;21.766;2023-04-25T00:32:28;13.13;;;11.18;;
35225;SDS011;21813;49.686;21.766;2023-04-25T00:34:55;11.02;;;9.93;;
35225;SDS011;21813;49.686;21.766;2023-04-25T00:37:22;11.73;;;10.35;;
35225;SDS011;21813;49.686;21.766;2023-04-25T00:39:50;13.00;;;10.63;;
35225;SDS011;21813;49.686;21.766;2023-04-25T00:42:16;12.40;;;10.77;;
35225;SDS011;21813;49.686;21.766;2023-04-25T00:44:43;12.45;;;10.25;;
35225;SDS011;21813;49.686;21.766;2023-04-25T00:47:10;15.25;;;10.90;;
35225;SDS011;21813;49.686;21.766;2023-04-25T00:49:37;13.50;;;11.20;;
35225;SDS011;21813;49.686;21.766;2023-04-25T00:52:02;14.25;;;11.20;;
35225;SDS011;21813;49.686;21.766;2023-04-25T00:54:29;11.48;;;10.02;;
35225;SDS011;21813;49.686;21.766;2023-04-25T00:56:55;13.32;;;11.00;;
35225;SDS011;21813;49.686;21.766;2023-04-25T00:59:23;11.57;;;10.38;;
35225;SDS011;21813;49.686;21.766;2023-04-25T01:01:49;12.07;;;10.65;;
35225;SDS011;21813;49.686;21.766;2023-04-25T01:04:17;12.95;;;10.85;;
35225;SDS011;21813;49.686;21.766;2023-04-25T01:06:43;11.10;;;9.93;;
35225;SDS011;21813;49.686;21.766;2023-04-25T01:09:10;12.38;;;9.63;;
35225;SDS011;21813;49.686;21.766;2023-04-25T01:11:35;11.55;;;10.10;;
35225;SDS011;21813;49.686;21.766;2023-04-25T01:14:03;12.48;;;10.38;;
35225;SDS011;21813;49.686;21.766;2023-04-25T01:16:28;11.60;;;10.07;;
35225;SDS011;21813;49.686;21.766;2023-04-25T01:18:56;13.15;;;10.35;;
35225;SDS011;21813;49.686;21.766;2023-04-25T01:21:21;11.00;;;9.90;;
35225;SDS011;21813;49.686;21.766;2023-04-25T01:23:48;11.48;;;9.05;;
35225;SDS011;21813;49.686;21.766;2023-04-25T01:26:15;12.18;;;10.70;;
35225;SDS011;21813;49.686;21.766;2023-04-25T01:28:41;12.00;;;10.02;;
35225;SDS011;21813;49.686;21.766;2023-04-25T01:31:07;10.55;;;9.23;;
35225;SDS011;21813;49.686;21.766;2023-04-25T01:33:35;10.30;;;9.20;;
35225;SDS011;21813;49.686;21.766;2023-04-25T01:36:00;12.73;;;9.57;;
35225;SDS011;21813;49.686;21.766;2023-04-25T01:38:28;12.77;;;9.90;;
35225;SDS011;21813;49.686;21.766;2023-04-25T01:40:54;10.95;;;9.73;;
35225;SDS011;21813;49.686;21.766;2023-04-25T01:43:21;10.38;;;9.27;;
35225;SDS011;21813;49.686;21.766;2023-04-25T01:45:48;12.60;;;10.02;;
35225;SDS011;21813;49.686;21.766;2023-04-25T01:48:15;10.93;;;9.13;;
35225;SDS011;21813;49.686;21.766;2023-04-25T01:50:41;10.65;;;9.55;;
35225;SDS011;21813;49.686;21.766;2023-04-25T01:53:09;12.90;;;9.30;;
35225;SDS011;21813;49.686;21.766;2023-04-25T01:55:36;11.60;;;8.55;;
35225;SDS011;21813;49.686;21.766;2023-04-25T01:58:04;11.15;;;9.25;;
35225;SDS011;21813;49.686;21.766;2023-04-25T02:00:34;13.23;;;10.77;;
35225;SDS011;21813;49.686;21.766;2023-04-25T02:03:04;13.05;;;11.52;;
35225;SDS011;21813;49.686;21.766;2023-04-25T02:05:34;13.40;;;10.82;;
35225;SDS011;21813;49.686;21.766;2023-04-25T02:08:05;12.05;;;10.40;;
35225;SDS011;21813;49.686;21.766;2023-04-25T02:10:32;11.82;;;10.48;;
35225;SDS011;21813;49.686;21.766;2023-04-25T02:12:59;12.00;;;9.10;;
35225;SDS011;21813;49.686;21.766;2023-04-25T02:15:25;10.65;;;9.30;;
35225;SDS011;21813;49.686;21.766;2023-04-25T02:17:52;11.55;;;10.35;;
35225;SDS011;21813;49.686;21.766;2023-04-25T02:20:21;12.23;;;10.27;;
35225;SDS011;21813;49.686;21.766;2023-04-25T02:22:48;10.63;;;8.65;;
35225;SDS011;21813;49.686;21.766;2023-04-25T02:25:14;11.32;;;9.68;;
35225;SDS011;21813;49.686;21.766;2023-04-25T02:27:43;10.93;;;9.73;;
35225;SDS011;21813;49.686;21.766;2023-04-25T02:30:08;11.95;;;9.43;;
35225;SDS011;21813;49.686;21.766;2023-04-25T02:32:36;12.02;;;10.73;;
35225;SDS011;21813;49.686;21.766;2023-04-25T02:35:02;12.68;;;11.35;;
35225;SDS011;21813;49.686;21.766;2023-04-25T02:37:30;15.55;;;12.25;;
35225;SDS011;21813;49.686;21.766;2023-04-25T02:39:56;13.75;;;12.23;;
35225;SDS011;21813;49.686;21.766;2023-04-25T02:42:23;13.70;;;12.20;;
35225;SDS011;21813;49.686;21.766;2023-04-25T02:44:49;15.35;;;11.88;;
35225;SDS011;21813;49.686;21.766;2023-04-25T02:47:16;14.48;;;12.68;;
35225;SDS011;21813;49.686;21.766;2023-04-25T02:49:41;14.63;;;11.15;;
35225;SDS011;21813;49.686;21.766;2023-04-25T02:52:08;14.02;;;12.50;;
35225;SDS011;21813;49.686;21.766;2023-04-25T02:54:34;12.48;;;9.35;;
35225;SDS011;21813;49.686;21.766;2023-04-25T02:57:01;11.35;;;10.18;;
35225;SDS011;21813;49.686;21.766;2023-04-25T02:59:27;14.45;;;11.20;;
35225;SDS011;21813;49.686;21.766;2023-04-25T03:01:54;11.30;;;9.70;;
35225;SDS011;21813;49.686;21.766;2023-04-25T03:04:20;13.57;;;10.23;;
35225;SDS011;21813;49.686;21.766;2023-04-25T03:06:47;13.70;;;11.88;;
35225;SDS011;21813;49.686;21.766;2023-04-25T03:09:13;12.05;;;10.45;;
35225;SDS011;21813;49.686;21.766;2023-04-25T03:11:39;12.77;;;10.10;;
35225;SDS011;21813;49.686;21.766;2023-04-25T03:14:05;14.38;;;11.02;;
35225;SDS011;21813;49.686;21.766;2023-04-25T03:16:31;14.65;;;10.85;;
35225;SDS011;21813;49.686;21.766;2023-04-25T03:18:57;14.02;;;11.40;;
35225;SDS011;21813;49.686;21.766;2023-04-25T03:21:25;15.32;;;11.63;;
35225;SDS011;21813;49.686;21.766;2023-04-25T03:23:51;12.60;;;11.05;;
35225;SDS011;21813;49.686;21.766;2023-04-25T03:26:18;14.77;;;12.85;;
35225;SDS011;21813;49.686;21.766;2023-04-25T03:28:44;16.73;;;14.50;;
35225;SDS011;21813;49.686;21.766;2023-04-25T03:31:11;15.38;;;13.65;;
35225;SDS011;21813;49.686;21.766;2023-04-25T03:33:37;19.17;;;13.88;;
35225;SDS011;21813;49.686;21.766;2023-04-25T03:36:05;18.25;;;13.57;;
35225;SDS011;21813;49.686;21.766;2023-04-25T03:38:31;15.85;;;13.15;;
35225;SDS011;21813;49.686;21.766;2023-04-25T03:40:58;17.30;;;13.13;;
35225;SDS011;21813;49.686;21.766;2023-04-25T03:43:24;15.60;;;13.18;;
35225;SDS011;21813;49.686;21.766;2023-04-25T03:45:51;13.80;;;11.88;;
35225;SDS011;21813;49.686;21.766;2023-04-25T03:48:17;12.98;;;11.43;;
35225;SDS011;21813;49.686;21.766;2023-04-25T03:50:44;15.15;;;11.73;;
35225;SDS011;21813;49.686;21.766;2023-04-25T03:53:10;12.55;;;11.15;;
35225;SDS011;21813;49.686;21.766;2023-04-25T03:55:37;12.10;;;9.65;;
35225;SDS011;21813;49.686;21.766;2023-04-25T03:58:02;10.90;;;9.75;;
35225;SDS011;21813;49.686;21.766;2023-04-25T04:00:30;14.77;;;10.35;;
35225;SDS011;21813;49.686;21.766;2023-04-25T04:02:55;10.55;;;9.45;;
35225;SDS011;21813;49.686;21.766;2023-04-25T04:05:23;9.43;;;8.43;;
35225;SDS011;21813;49.686;21.766;2023-04-25T04:07:48;10.57;;;9.35;;
35225;SDS011;21813;49.686;21.766;2023-04-25T04:10:15;11.63;;;8.90;;
35225;SDS011;21813;49.686;21.766;2023-04-25T04:12:41;10.38;;;8.80;;
35225;SDS011;21813;49.686;21.766;2023-04-25T04:15:08;10.60;;;9.15;;
35225;SDS011;21813;49.686;21.766;2023-04-25T04:17:35;10.43;;;9.15;;
35225;SDS011;21813;49.686;21.766;2023-04-25T04:20:02;10.23;;;9.18;;
35225;SDS011;21813;49.686;21.766;2023-04-25T04:22:29;11.50;;;9.65;;
35225;SDS011;21813;49.686;21.766;2023-04-25T04:24:57;12.05;;;9.60;;
35225;SDS011;21813;49.686;21.766;2023-04-25T04:27:22;11.55;;;10.32;;
35225;SDS011;21813;49.686;21.766;2023-04-25T04:29:49;13.02;;;10.60;;
35225;SDS011;21813;49.686;21.766;2023-04-25T04:32:16;12.63;;;11.00;;
35225;SDS011;21813;49.686;21.766;2023-04-25T04:34:43;13.80;;;12.23;;
35225;SDS011;21813;49.686;21.766;2023-04-25T04:37:09;18.10;;;11.80;;
35225;SDS011;21813;49.686;21.766;2023-04-25T04:39:36;13.65;;;11.27;;
35225;SDS011;21813;49.686;21.766;2023-04-25T04:42:02;13.85;;;11.35;;
35225;SDS011;21813;49.686;21.766;2023-04-25T04:44:29;13.20;;;11.20;;
35225;SDS011;21813;49.686;21.766;2023-04-25T04:46:58;14.15;;;10.77;;
35225;SDS011;21813;49.686;21.766;2023-04-25T04:49:26;13.18;;;10.45;;
35225;SDS011;21813;49.686;21.766;2023-04-25T04:51:51;12.98;;;11.02;;
35225;SDS011;21813;49.686;21.766;2023-04-25T04:54:18;12.80;;;10.88;;
35225;SDS011;21813;49.686;21.766;2023-04-25T04:56:44;10.55;;;9.38;;
35225;SDS011;21813;49.686;21.766;2023-04-25T04:59:10;10.70;;;8.10;;
35225;SDS011;21813;49.686;21.766;2023-04-25T05:01:36;6.13;;;5.32;;
35225;SDS011;21813;49.686;21.766;2023-04-25T05:04:03;5.10;;;4.35;;
35225;SDS011;21813;49.686;21.766;2023-04-25T05:06:29;3.92;;;3.58;;
35225;SDS011;21813;49.686;21.766;2023-04-25T05:08:57;3.50;;;2.72;;
35225;SDS011;21813;49.686;21.766;2023-04-25T05:11:23;2.88;;;2.20;;
35225;SDS011;21813;49.686;21.766;2023-04-25T05:13:50;2.08;;;1.92;;
35225;SDS011;21813;49.686;21.766;2023-04-25T05:16:17;3.85;;;1.80;;
35225;SDS011;21813;49.686;21.766;2023-04-25T05:18:44;1.95;;;1.75;;
35225;SDS011;21813;49.686;21.766;2023-04-25T05:21:10;1.90;;;1.80;;
35225;SDS011;21813;49.686;21.766;2023-04-25T05:23:36;1.70;;;1.60;;
35225;SDS011;21813;49.686;21.766;2023-04-25T05:26:02;2.05;;;1.80;;
35225;SDS011;21813;49.686;21.766;2023-04-25T05:28:29;2.38;;;1.95;;
35225;SDS011;21813;49.686;21.766;2023-04-25T05:30:55;3.40;;;1.98;;
35225;SDS011;21813;49.686;21.766;2023-04-25T05:33:23;3.67;;;2.50;;
35225;SDS011;21813;49.686;21.766;2023-04-25T05:35:48;2.15;;;2.05;;
35225;SDS011;21813;49.686;21.766;2023-04-25T05:38:18;2.97;;;2.67;;
35225;SDS011;21813;49.686;21.766;2023-04-25T05:40:44;2.53;;;2.22;;
35225;SDS011;21813;49.686;21.766;2023-04-25T05:43:11;2.60;;;2.40;;
35225;SDS011;21813;49.686;21.766;2023-04-25T05:45:37;5.07;;;2.50;;
35225;SDS011;21813;49.686;21.766;2023-04-25T05:48:03;2.70;;;2.15;;
35225;SDS011;21813;49.686;21.766;2023-04-25T05:50:38;2.10;;;2.00;;
35225;SDS011;21813;49.686;21.766;2023-04-25T05:53:04;2.38;;;2.10;;
35225;SDS011;21813;49.686;21.766;2023-04-25T05:55:31;3.63;;;2.38;;
35225;SDS011;21813;49.686;21.766;2023-04-25T05:57:57;2.53;;;2.33;;
35225;SDS011;21813;49.686;21.766;2023-04-25T06:00:23;2.60;;;2.40;;
35225;SDS011;21813;49.686;21.766;2023-04-25T06:02:49;3.20;;;2.90;;
35225;SDS011;21813;49.686;21.766;2023-04-25T06:05:15;2.65;;;2.45;;
35225;SDS011;21813;49.686;21.766;2023-04-25T06:07:52;3.30;;;2.95;;
35225;SDS011;21813;49.686;21.766;2023-04-25T06:10:38;3.35;;;3.05;;
35225;SDS011;21813;49.686;21.766;2023-04-25T06:13:05;3.50;;;3.20;;
35225;SDS011;21813;49.686;21.766;2023-04-25T06:15:30;3.20;;;3.00;;
35225;SDS011;21813;49.686;21.766;2023-04-25T06:17:58;3.55;;;3.25;;
35225;SDS011;21813;49.686;21.766;2023-04-25T06:20:24;3.80;;;3.50;;
35225;SDS011;21813;49.686;21.766;2023-04-25T06:22:51;3.83;;;3.53;;
35225;SDS011;21813;49.686;21.766;2023-04-25T06:25:17;6.10;;;4.25;;
35225;SDS011;21813;49.686;21.766;2023-04-25T06:27:44;5.18;;;4.00;;
35225;SDS011;21813;49.686;21.766;2023-04-25T06:30:10;6.00;;;4.07;;
35225;SDS011;21813;49.686;21.766;2023-04-25T06:32:38;5.03;;;4.53;;
35225;SDS011;21813;49.686;21.766;2023-04-25T06:35:04;4.75;;;4.22;;
35225;SDS011;21813;49.686;21.766;2023-04-25T06:37:30;6.35;;;4.88;;
35225;SDS011;21813;49.686;21.766;2023-04-25T06:39:56;4.20;;;3.63;;
35225;SDS011;21813;49.686;21.766;2023-04-25T06:42:22;5.07;;;3.75;;
35225;SDS011;21813;49.686;21.766;2023-04-25T06:44:48;3.50;;;3.20;;
35225;SDS011;21813;49.686;21.766;2023-04-25T06:47:14;4.10;;;3.70;;
35225;SDS011;21813;49.686;21.766;2023-04-25T06:49:40;4.18;;;3.30;;
35225;SDS011;21813;49.686;21.766;2023-04-25T06:52:07;3.80;;;3.50;;
35225;SDS011;21813;49.686;21.766;2023-04-25T06:54:33;4.22;;;3.50;;
35225;SDS011;21813;49.686;21.766;2023-04-25T06:56:59;4.15;;;3.65;;
35225;SDS011;21813;49.686;21.766;2023-04-25T06:59:26;4.20;;;3.90;;
35225;SDS011;21813;49.686;21.766;2023-04-25T07:01:52;4.32;;;3.92;;
35225;SDS011;21813;49.686;21.766;2023-04-25T07:04:18;4.18;;;3.88;;
35225;SDS011;21813;49.686;21.766;2023-04-25T07:06:45;4.85;;;4.30;;
35225;SDS011;21813;49.686;21.766;2023-04-25T07:09:13;5.55;;;5.05;;
35225;SDS011;21813;49.686;21.766;2023-04-25T07:11:39;7.40;;;5.55;;
35225;SDS011;21813;49.686;21.766;2023-04-25T07:14:05;10.00;;;4.82;;
35225;SDS011;21813;49.686;21.766;2023-04-25T07:16:31;6.55;;;5.25;;
35225;SDS011;21813;49.686;21.766;2023-04-25T07:18:57;5.40;;;4.90;;
35225;SDS011;21813;49.686;21.766;2023-04-25T07:21:24;6.30;;;5.53;;
35225;SDS011;21813;49.686;21.766;2023-04-25T07:23:49;6.95;;;6.18;;
35225;SDS011;21813;49.686;21.766;2023-04-25T07:26:17;9.43;;;6.70;;
35225;SDS011;21813;49.686;21.766;2023-04-25T07:28:42;9.93;;;6.72;;
35225;SDS011;21813;49.686;21.766;2023-04-25T07:31:09;8.60;;;7.10;;
35225;SDS011;21813;49.686;21.766;2023-04-25T07:33:35;7.93;;;6.68;;
35225;SDS011;21813;49.686;21.766;2023-04-25T07:36:01;9.13;;;7.00;;
35225;SDS011;21813;49.686;21.766;2023-04-25T07:38:26;8.85;;;7.95;;
35225;SDS011;21813;49.686;21.766;2023-04-25T07:40:53;7.82;;;7.03;;
35225;SDS011;21813;49.686;21.766;2023-04-25T07:43:18;8.80;;;7.13;;
35225;SDS011;21813;49.686;21.766;2023-04-25T07:45:45;6.97;;;6.30;;
35225;SDS011;21813;49.686;21.766;2023-04-25T07:48:16;8.52;;;7.00;;
35225;SDS011;21813;49.686;21.766;2023-04-25T07:50:48;9.85;;;7.68;;
35225;SDS011;21813;49.686;21.766;2023-04-25T07:53:14;8.80;;;6.95;;
35225;SDS011;21813;49.686;21.766;2023-04-25T07:55:40;8.70;;;7.60;;
35225;SDS011;21813;49.686;21.766;2023-04-25T07:58:09;10.00;;;7.55;;
35225;SDS011;21813;49.686;21.766;2023-04-25T08:00:38;11.55;;;8.25;;
35225;SDS011;21813;49.686;21.766;2023-04-25T08:03:04;11.13;;;8.00;;
35225;SDS011;21813;49.686;21.766;2023-04-25T08:05:31;10.85;;;8.43;;
35225;SDS011;21813;49.686;21.766;2023-04-25T08:07:57;10.25;;;8.90;;
35225;SDS011;21813;49.686;21.766;2023-04-25T08:10:23;9.48;;;7.72;;
35225;SDS011;21813;49.686;21.766;2023-04-25T08:12:49;12.88;;;9.10;;
35225;SDS011;21813;49.686;21.766;2023-04-25T08:15:15;10.73;;;9.07;;
35225;SDS011;21813;49.686;21.766;2023-04-25T08:17:41;13.40;;;9.73;;
35225;SDS011;21813;49.686;21.766;2023-04-25T08:20:07;12.60;;;9.75;;
35225;SDS011;21813;49.686;21.766;2023-04-25T08:22:34;14.20;;;10.77;;
35225;SDS011;21813;49.686;21.766;2023-04-25T08:25:00;12.65;;;10.30;;
35225;SDS011;21813;49.686;21.766;2023-04-25T08:27:26;12.85;;;10.68;;
35225;SDS011;21813;49.686;21.766;2023-04-25T08:29:53;10.57;;;8.55;;
35225;SDS011;21813;49.686;21.766;2023-04-25T08:32:19;10.45;;;8.60;;
35225;SDS011;21813;49.686;21.766;2023-04-25T08:34:47;8.32;;;7.30;;
35225;SDS011;21813;49.686;21.766;2023-04-25T08:37:13;7.57;;;6.20;;
35225;SDS011;21813;49.686;21.766;2023-04-25T08:39:39;8.27;;;6.45;;
35225;SDS011;21813;49.686;21.766;2023-04-25T08:42:06;9.02;;;7.47;;
35225;SDS011;21813;49.686;21.766;2023-04-25T08:44:36;9.68;;;6.95;;
35225;SDS011;21813;49.686;21.766;2023-04-25T08:47:03;7.40;;;6.60;;
35225;SDS011;21813;49.686;21.766;2023-04-25T08:49:34;6.95;;;6.25;;
35225;SDS011;21813;49.686;21.766;2023-04-25T08:52:01;6.93;;;6.07;;
35225;SDS011;21813;49.686;21.766;2023-04-25T08:54:32;7.00;;;5.68;;
35225;SDS011;21813;49.686;21.766;2023-04-25T08:57:01;7.60;;;6.80;;
35225;SDS011;21813;49.686;21.766;2023-04-25T08:59:28;6.43;;;5.75;;
35225;SDS011;21813;49.686;21.766;2023-04-25T09:01:55;6.35;;;5.57;;
35225;SDS011;21813;49.686;21.766;2023-04-25T09:04:22;6.20;;;5.50;;
35225;SDS011;21813;49.686;21.766;2023-04-25T09:06:47;7.32;;;5.50;;
35225;SDS011;21813;49.686;21.766;2023-04-25T09:09:14;7.88;;;6.00;;
35225;SDS011;21813;49.686;21.766;2023-04-25T09:11:39;8.93;;;6.32;;
35225;SDS011;21813;49.686;21.766;2023-04-25T09:14:12;7.30;;;6.55;;
35225;SDS011;21813;49.686;21.766;2023-04-25T09:19:27;7.60;;;6.25;;
35225;SDS011;21813;49.686;21.766;2023-04-25T09:21:59;10.05;;;7.03;;
35225;SDS011;21813;49.686;21.766;2023-04-25T09:26:56;9.55;;;6.78;;
35225;SDS011;21813;49.686;21.766;2023-04-25T09:29:30;6.50;;;5.90;;
35225;SDS011;21813;49.686;21.766;2023-04-25T09:32:14;7.90;;;6.57;;
35225;SDS011;21813;49.686;21.766;2023-04-25T09:34:46;9.65;;;6.47;;
35225;SDS011;21813;49.686;21.766;2023-04-25T09:37:23;8.03;;;6.83;;
35225;SDS011;21813;49.686;21.766;2023-04-25T09:39:56;7.82;;;6.20;;
35225;SDS011;21813;49.686;21.766;2023-04-25T09:42:25;10.93;;;8.25;;
35225;SDS011;21813;49.686;21.766;2023-04-25T09:44:53;6.90;;;6.22;;
35225;SDS011;21813;49.686;21.766;2023-04-25T09:47:20;8.93;;;6.80;;
35225;SDS011;21813;49.686;21.766;2023-04-25T09:49:49;10.30;;;7.20;;
35225;SDS011;21813;49.686;21.766;2023-04-25T09:52:16;10.75;;;8.73;;
35225;SDS011;21813;49.686;21.766;2023-04-25T09:54:46;9.93;;;7.03;;
35225;SDS011;21813;49.686;21.766;2023-04-25T09:57:20;8.52;;;7.50;;
35225;SDS011;21813;49.686;21.766;2023-04-25T09:59:49;8.38;;;7.45;;
35225;SDS011;21813;49.686;21.766;2023-04-25T10:02:19;6.82;;;6.13;;
35225;SDS011;21813;49.686;21.766;2023-04-25T10:04:48;5.60;;;5.07;;
35225;SDS011;21813;49.686;21.766;2023-04-25T10:07:18;6.88;;;6.25;;
35225;SDS011;21813;49.686;21.766;2023-04-25T10:09:47;6.63;;;5.93;;
35225;SDS011;21813;49.686;21.766;2023-04-25T10:12:14;6.82;;;6.03;;
35225;SDS011;21813;49.686;21.766;2023-04-25T10:14:43;9.00;;;6.97;;
35225;SDS011;21813;49.686;21.766;2023-04-25T10:17:10;9.90;;;7.68;;
35225;SDS011;21813;49.686;21.766;2023-04-25T10:19:40;9.30;;;7.90;;
35225;SDS011;21813;49.686;21.766;2023-04-25T10:22:17;10.40;;;7.65;;
35225;SDS011;21813;49.686;21.766;2023-04-25T10:24:49;7.30;;;6.60;;
35225;SDS011;21813;49.686;21.766;2023-04-25T10:27:16;9.07;;;6.75;;
35225;SDS011;21813;49.686;21.766;2023-04-25T10:29:43;6.28;;;5.35;;
35225;SDS011;21813;49.686;21.766;2023-04-25T10:32:09;7.00;;;5.55;;
35225;SDS011;21813;49.686;21.766;2023-04-25T10:34:42;6.53;;;5.88;;
35225;SDS011;21813;49.686;21.766;2023-04-25T10:37:12;6.57;;;5.85;;
35225;SDS011;21813;49.686;21.766;2023-04-25T10:39:40;5.57;;;5.05;;
35225;SDS011;21813;49.686;21.766;2023-04-25T10:42:09;6.43;;;5.32;;
35225;SDS011;21813;49.686;21.766;2023-04-25T10:44:36;6.38;;;5.70;;
35225;SDS011;21813;49.686;21.766;2023-04-25T10:47:03;6.43;;;5.82;;
35225;SDS011;21813;49.686;21.766;2023-04-25T10:49:37;6.90;;;5.70;;
35225;SDS011;21813;49.686;21.766;2023-04-25T10:54:54;6.70;;;6.10;;
35225;SDS011;21813;49.686;21.766;2023-04-25T10:57:31;7.15;;;6.45;;
35225;SDS011;21813;49.686;21.766;2023-04-25T11:00:16;8.65;;;6.55;;
35225;SDS011;21813;49.686;21.766;2023-04-25T11:02:44;6.57;;;5.60;;
35225;SDS011;21813;49.686;21.766;2023-04-25T11:07:53;13.23;;;5.70;;
35225;SDS011;21813;49.686;21.766;2023-04-25T11:12:52;7.32;;;5.63;;
35225;SDS011;21813;49.686;21.766;2023-04-25T11:15:19;6.78;;;5.63;;
35225;SDS011;21813;49.686;21.766;2023-04-25T11:17:47;8.77;;;5.82;;
35225;SDS011;21813;49.686;21.766;2023-04-25T11:20:13;6.25;;;5.65;;
35225;SDS011;21813;49.686;21.766;2023-04-25T11:22:40;8.80;;;5.65;;
35225;SDS011;21813;49.686;21.766;2023-04-25T11:25:07;7.85;;;5.45;;
35225;SDS011;21813;49.686;21.766;2023-04-25T11:27:37;7.65;;;6.20;;
35225;SDS011;21813;49.686;21.766;2023-04-25T11:30:25;5.90;;;4.80;;
35225;SDS011;21813;49.686;21.766;2023-04-25T11:32:54;6.05;;;5.45;;
35225;SDS011;21813;49.686;21.766;2023-04-25T11:35:21;10.48;;;5.32;;
35225;SDS011;21813;49.686;21.766;2023-04-25T11:37:48;5.28;;;4.70;;
35225;SDS011;21813;49.686;21.766;2023-04-25T11:40:16;9.35;;;6.45;;
35225;SDS011;21813;49.686;21.766;2023-04-25T11:42:46;7.05;;;5.50;;
35225;SDS011;21813;49.686;21.766;2023-04-25T11:45:13;8.52;;;5.13;;
35225;SDS011;21813;49.686;21.766;2023-04-25T11:47:39;7.35;;;4.30;;
35225;SDS011;21813;49.686;21.766;2023-04-25T11:50:07;4.70;;;3.30;;
35225;SDS011;21813;49.686;21.766;2023-04-25T11:55:07;5.32;;;4.82;;
35225;SDS011;21813;49.686;21.766;2023-04-25T11:57:38;4.93;;;3.95;;
35225;SDS011;21813;49.686;21.766;2023-04-25T12:00:09;5.47;;;4.20;;
35225;SDS011;21813;49.686;21.766;2023-04-25T12:02:36;3.50;;;3.17;;
35225;SDS011;21813;49.686;21.766;2023-04-25T12:05:06;7.00;;;4.47;;
35225;SDS011;21813;49.686;21.766;2023-04-25T12:07:33;8.15;;;3.80;;
35225;SDS011;21813;49.686;21.766;2023-04-25T12:10:04;3.30;;;3.00;;
35225;SDS011;21813;49.686;21.766;2023-04-25T12:12:34;6.18;;;3.55;;
35225;SDS011;21813;49.686;21.766;2023-04-25T12:17:50;4.10;;;3.30;;
35225;SDS011;21813;49.686;21.766;2023-04-25T12:20:20;2.45;;;2.25;;
35225;SDS011;21813;49.686;21.766;2023-04-25T12:22:49;4.00;;;3.00;;
35225;SDS011;21813;49.686;21.766;2023-04-25T12:25:37;4.15;;;2.42;;
35225;SDS011;21813;49.686;21.766;2023-04-25T12:28:18;2.80;;;2.60;;
35225;SDS011;21813;49.686;21.766;2023-04-25T12:31:00;2.63;;;2.42;;
35225;SDS011;21813;49.686;21.766;2023-04-25T12:33:27;2.83;;;2.55;;
35225;SDS011;21813;49.686;21.766;2023-04-25T12:35:55;2.72;;;2.22;;
35225;SDS011;21813;49.686;21.766;2023-04-25T12:38:22;2.60;;;2.35;;
35225;SDS011;21813;49.686;21.766;2023-04-25T12:40:53;5.35;;;2.55;;
35225;SDS011;21813;49.686;21.766;2023-04-25T12:43:19;3.00;;;2.60;;
35225;SDS011;21813;49.686;21.766;2023-04-25T12:45:53;3.00;;;2.13;;
35225;SDS011;21813;49.686;21.766;2023-04-25T12:48:19;2.20;;;2.00;;
35225;SDS011;21813;49.686;21.766;2023-04-25T12:50:47;2.70;;;2.25;;
35225;SDS011;21813;49.686;21.766;2023-04-25T12:53:17;2.85;;;2.30;;
35225;SDS011;21813;49.686;21.766;2023-04-25T12:55:45;3.10;;;2.23;;
35225;SDS011;21813;49.686;21.766;2023-04-25T12:58:13;3.70;;;2.65;;
35225;SDS011;21813;49.686;21.766;2023-04-25T13:00:44;3.30;;;2.72;;
35225;SDS011;21813;49.686;21.766;2023-04-25T13:03:11;2.88;;;2.67;;
35225;SDS011;21813;49.686;21.766;2023-04-25T13:05:38;3.25;;;2.63;;
35225;SDS011;21813;49.686;21.766;2023-04-25T13:08:04;3.67;;;3.15;;
35225;SDS011;21813;49.686;21.766;2023-04-25T13:10:30;2.95;;;2.47;;
35225;SDS011;21813;49.686;21.766;2023-04-25T13:12:55;5.43;;;2.40;;
35225;SDS011;21813;49.686;21.766;2023-04-25T13:15:23;3.15;;;2.30;;
35225;SDS011;21813;49.686;21.766;2023-04-25T13:17:50;2.90;;;2.45;;
35225;SDS011;21813;49.686;21.766;2023-04-25T13:20:17;6.07;;;3.40;;
35225;SDS011;21813;49.686;21.766;2023-04-25T13:22:44;4.00;;;2.88;;
35225;SDS011;21813;49.686;21.766;2023-04-25T13:25:11;5.50;;;3.30;;
35225;SDS011;21813;49.686;21.766;2023-04-25T13:27:37;4.55;;;3.38;;
35225;SDS011;21813;49.686;21.766;2023-04-25T13:30:05;6.70;;;3.05;;
35225;SDS011;21813;49.686;21.766;2023-04-25T13:32:34;3.90;;;3.33;;
35225;SDS011;21813;49.686;21.766;2023-04-25T13:35:09;4.72;;;3.15;;
35225;SDS011;21813;49.686;21.766;2023-04-25T13:37:36;4.90;;;2.72;;
35225;SDS011;21813;49.686;21.766;2023-04-25T13:40:05;4.75;;;3.50;;
35225;SDS011;21813;49.686;21.766;2023-04-25T13:42:36;5.60;;;3.10;;
35225;SDS011;21813;49.686;21.766;2023-04-25T13:45:05;4.88;;;3.30;;
35225;SDS011;21813;49.686;21.766;2023-04-25T13:47:32;3.72;;;3.42;;
35225;SDS011;21813;49.686;21.766;2023-04-25T13:50:00;4.22;;;3.83;;
35225;SDS011;21813;49.686;21.766;2023-04-25T13:52:28;4.88;;;4.38;;
35225;SDS011;21813;49.686;21.766;2023-04-25T13:54:55;5.20;;;3.75;;
35225;SDS011;21813;49.686;21.766;2023-04-25T13:57:20;4.82;;;3.47;;
35225;SDS011;21813;49.686;21.766;2023-04-25T13:59:46;6.40;;;4.07;;
35225;SDS011;21813;49.686;21.766;2023-04-25T14:02:12;4.00;;;3.60;;
35225;SDS011;21813;49.686;21.766;2023-04-25T14:04:40;5.07;;;3.90;;
35225;SDS011;21813;49.686;21.766;2023-04-25T14:07:06;4.70;;;3.88;;
35225;SDS011;21813;49.686;21.766;2023-04-25T14:09:32;6.55;;;4.22;;
35225;SDS011;21813;49.686;21.766;2023-04-25T14:11:57;4.93;;;4.38;;
35225;SDS011;21813;49.686;21.766;2023-04-25T14:14:24;5.38;;;4.38;;
35225;SDS011;21813;49.686;21.766;2023-04-25T14:16:50;5.07;;;4.28;;
35225;SDS011;21813;49.686;21.766;2023-04-25T14:19:17;7.32;;;5.20;;
35225;SDS011;21813;49.686;21.766;2023-04-25T14:21:43;7.57;;;5.28;;
35225;SDS011;21813;49.686;21.766;2023-04-25T14:24:10;8.63;;;6.35;;
35225;SDS011;21813;49.686;21.766;2023-04-25T14:26:38;6.75;;;5.40;;
35225;SDS011;21813;49.686;21.766;2023-04-25T14:29:05;10.68;;;7.32;;
35225;SDS011;21813;49.686;21.766;2023-04-25T14:31:37;13.15;;;10.27;;
35225;SDS011;21813;49.686;21.766;2023-04-25T14:34:04;7.88;;;6.07;;
35225;SDS011;21813;49.686;21.766;2023-04-25T14:36:32;7.10;;;6.10;;
35225;SDS011;21813;49.686;21.766;2023-04-25T14:38:59;8.30;;;7.00;;
35225;SDS011;21813;49.686;21.766;2023-04-25T14:41:25;9.25;;;6.43;;
35225;SDS011;21813;49.686;21.766;2023-04-25T14:43:54;8.73;;;6.97;;
35225;SDS011;21813;49.686;21.766;2023-04-25T14:46:22;12.63;;;9.20;;